Weather at Manggar Airfield [CLOSED]

Public forecast

Using degrees Celsius for public forecast. Weather courtesy of forecast.io.

Closest aviation weather report (METAR) to Manggar Airfield

Closest report is Sultan Aji Muhammad Sulaiman Sepinggan International Airport, 6.4 nm (11.8 km) SW.

2024/04/24 15:30 (retrieved 43 minutes ago)

WALL 241530Z 36004KT 7000 FEW020 27/26 Q1010 NOSIG

Closest aviation forecast (TAF) to Manggar Airfield

Forecast is more than 6 hours old.

Closest forecast is Sultan Aji Muhammad Sulaiman Sepinggan International Airport, 6.4 nm (11.8 km) SW.

2024/04/24 06:00 (retrieved 10 hours ago)

TAF WALL 240500Z 2406/2512 22003KT 4000 RA SCT016 BECMG 2407/2409 9999 NSW SCT020